createdAt,value
2022-08-26T00:00:56.097Z,19.01
2022-08-26T00:01:56.146Z,19.01
2022-08-26T00:02:56.121Z,19.01
2022-08-26T00:03:56.447Z,19.01
2022-08-26T00:04:56.067Z,19.01
2022-08-26T00:05:56.089Z,19.01
2022-08-26T00:06:56.173Z,19.01
2022-08-26T00:07:56.156Z,19.01
2022-08-26T00:08:56.341Z,19.01
2022-08-26T00:09:56.741Z,18.77
2022-08-26T00:11:00.067Z,18.74
2022-08-26T00:11:56.661Z,18.72
2022-08-26T00:12:55.985Z,18.69
2022-08-26T00:13:56.702Z,18.68
2022-08-26T00:14:56.454Z,18.68
2022-08-26T00:15:56.828Z,18.68
2022-08-26T00:16:56.144Z,18.68
2022-08-26T00:17:56.084Z,18.6
2022-08-26T00:18:56.099Z,18.58
2022-08-26T00:19:56.096Z,18.55
2022-08-26T00:20:56.126Z,18.54
2022-08-26T00:21:56.094Z,18.51
2022-08-26T00:22:56.102Z,18.5
2022-08-26T00:23:56.096Z,18.48
2022-08-26T00:24:56.172Z,18.47
2022-08-26T00:25:57.233Z,18.44
2022-08-26T00:26:56.093Z,18.43
2022-08-26T00:27:57.101Z,18.39
2022-08-26T00:28:56.103Z,18.38
2022-08-26T00:29:57.102Z,18.37
2022-08-26T00:30:56.097Z,18.36
2022-08-26T00:31:56.125Z,18.39
2022-08-26T00:32:57.082Z,18.39
2022-08-26T00:33:57.133Z,18.39
2022-08-26T00:34:56.396Z,18.38
2022-08-26T00:35:56.190Z,18.37
2022-08-26T00:36:56.088Z,18.35
2022-08-26T00:37:56.203Z,18.35
2022-08-26T00:38:56.195Z,18.34
2022-08-26T00:40:00.578Z,18.33
2022-08-26T00:40:56.110Z,18.33
2022-08-26T00:41:56.365Z,18.33
2022-08-26T00:42:56.607Z,18.33
2022-08-26T00:43:59.230Z,18.33
2022-08-26T00:44:56.430Z,18.32
2022-08-26T00:45:56.218Z,18.33
2022-08-26T00:46:57.138Z,18.31
2022-08-26T00:47:56.067Z,18.29
2022-08-26T00:48:56.182Z,18.28
2022-08-26T00:49:56.156Z,18.27
2022-08-26T00:50:56.407Z,18.25
2022-08-26T00:51:56.179Z,18.24
2022-08-26T00:52:56.523Z,18.23
2022-08-26T00:53:57.365Z,18.23
2022-08-26T00:54:56.078Z,18.23
2022-08-26T00:55:56.861Z,18.23
2022-08-26T00:56:57.426Z,18.22
2022-08-26T00:57:56.471Z,18.29
2022-08-26T00:58:56.285Z,18.33
2022-08-26T00:59:56.263Z,18.44
2022-08-26T01:00:56.397Z,18.5
2022-08-26T01:01:57.202Z,18.52
2022-08-26T01:02:56.395Z,18.55
2022-08-26T01:03:57.470Z,18.55
2022-08-26T01:04:57.195Z,18.55
2022-08-26T01:05:56.089Z,18.55
2022-08-26T01:06:56.324Z,18.55
2022-08-26T01:07:56.214Z,18.56
2022-08-26T01:08:56.218Z,18.55
2022-08-26T01:09:56.546Z,18.53
2022-08-26T01:10:56.295Z,18.53
2022-08-26T01:11:56.089Z,18.52
2022-08-26T01:12:56.244Z,18.52
2022-08-26T01:13:56.082Z,18.51
2022-08-26T01:14:56.101Z,18.51
2022-08-26T01:15:56.134Z,18.51
2022-08-26T01:16:56.112Z,18.51
2022-08-26T01:17:56.225Z,18.51
2022-08-26T01:18:56.097Z,18.49
2022-08-26T01:19:56.095Z,18.49
2022-08-26T01:20:59.515Z,18.47
2022-08-26T01:21:56.084Z,18.46
2022-08-26T01:22:56.090Z,18.44
2022-08-26T01:23:59.102Z,18.42
2022-08-26T01:24:57.096Z,18.41
2022-08-26T01:25:56.090Z,18.4
2022-08-26T01:26:56.111Z,18.38
2022-08-26T01:27:59.099Z,18.37
2022-08-26T01:28:56.115Z,18.35
2022-08-26T01:29:56.090Z,18.34
2022-08-26T01:30:56.091Z,18.31
2022-08-26T01:31:56.130Z,18.28
2022-08-26T01:32:56.083Z,18.26
2022-08-26T01:33:56.151Z,18.25
2022-08-26T01:34:56.095Z,18.22
2022-08-26T01:35:56.093Z,18.19
2022-08-26T01:36:56.096Z,18.19
2022-08-26T01:37:56.095Z,18.17
2022-08-26T01:38:56.116Z,18.16
2022-08-26T01:39:56.122Z,18.15
2022-08-26T01:40:56.091Z,18.13
2022-08-26T01:41:56.104Z,18.11
2022-08-26T01:42:56.092Z,18.1
2022-08-26T01:43:56.113Z,18.09
2022-08-26T01:44:57.092Z,18.07
2022-08-26T01:45:56.119Z,18.05
2022-08-26T01:46:56.113Z,18.05
2022-08-26T01:47:59.106Z,18.04
2022-08-26T01:48:56.076Z,18.05
2022-08-26T01:49:56.174Z,18.05
2022-08-26T01:50:56.120Z,18.09
2022-08-26T01:51:56.083Z,18.12
2022-08-26T01:52:56.097Z,18.15
2022-08-26T01:53:56.096Z,18.18
2022-08-26T01:54:56.105Z,18.2
2022-08-26T01:55:56.115Z,18.21
2022-08-26T01:56:57.147Z,18.23
2022-08-26T01:57:57.116Z,18.24
2022-08-26T01:58:57.165Z,18.27
2022-08-26T01:59:56.103Z,18.29
2022-08-26T02:00:56.197Z,18.29
2022-08-26T02:01:56.102Z,18.32
2022-08-26T02:02:56.094Z,18.32
2022-08-26T02:03:56.107Z,18.33
2022-08-26T02:04:56.106Z,18.34
2022-08-26T02:05:56.142Z,18.35
2022-08-26T02:06:57.084Z,18.36
2022-08-26T02:07:56.110Z,18.36
2022-08-26T02:08:56.094Z,18.37
2022-08-26T02:09:56.099Z,18.36
2022-08-26T02:10:56.154Z,18.36
2022-08-26T02:11:56.106Z,18.35
2022-08-26T02:12:56.107Z,18.36
2022-08-26T02:13:56.089Z,18.35
2022-08-26T02:14:56.100Z,18.35
2022-08-26T02:15:56.160Z,18.35
2022-08-26T02:16:56.108Z,18.36
2022-08-26T02:17:59.098Z,18.36
2022-08-26T02:18:56.094Z,18.35
2022-08-26T02:19:56.095Z,18.34
2022-08-26T02:20:56.162Z,18.33
2022-08-26T02:21:56.101Z,18.31
2022-08-26T02:22:56.086Z,18.31
2022-08-26T02:23:57.089Z,18.29
2022-08-26T02:24:56.080Z,18.3
2022-08-26T02:25:56.152Z,18.3
2022-08-26T02:26:57.085Z,18.3
2022-08-26T02:27:57.207Z,18.29
2022-08-26T02:28:56.104Z,18.29
2022-08-26T02:29:56.373Z,18.27
2022-08-26T02:30:56.117Z,18.26
2022-08-26T02:31:56.169Z,18.26
2022-08-26T02:32:57.589Z,18.26
2022-08-26T02:33:57.473Z,18.26
2022-08-26T02:34:56.216Z,18.26
2022-08-26T02:35:56.186Z,18.25
2022-08-26T02:36:56.393Z,18.26
2022-08-26T02:37:56.100Z,18.26
2022-08-26T02:38:56.096Z,18.27
2022-08-26T02:39:56.139Z,18.26
2022-08-26T02:40:56.114Z,18.26
2022-08-26T02:41:56.121Z,18.26
2022-08-26T02:42:59.391Z,18.29
2022-08-26T02:43:56.093Z,18.28
2022-08-26T02:44:56.102Z,18.26
2022-08-26T02:45:56.099Z,18.25
2022-08-26T02:46:56.095Z,18.21
2022-08-26T02:47:57.097Z,18.18
2022-08-26T02:48:56.105Z,18.16
2022-08-26T02:49:56.099Z,18.13
2022-08-26T02:50:56.103Z,18.12
2022-08-26T02:51:56.096Z,18.1
2022-08-26T02:52:56.104Z,18.07
2022-08-26T02:53:56.103Z,18.03
2022-08-26T02:54:56.102Z,18.01
2022-08-26T02:55:56.094Z,17.98
2022-08-26T02:56:56.097Z,17.95
2022-08-26T02:57:56.099Z,17.92
2022-08-26T02:58:56.116Z,17.89
2022-08-26T02:59:56.095Z,17.85
2022-08-26T03:00:56.107Z,17.83
2022-08-26T03:01:57.161Z,17.81
2022-08-26T03:02:56.096Z,17.78
2022-08-26T03:03:56.129Z,17.77
2022-08-26T03:05:01.847Z,17.76
2022-08-26T03:05:56.117Z,17.76
2022-08-26T03:06:56.087Z,17.76
2022-08-26T03:07:56.099Z,17.77
2022-08-26T03:08:56.117Z,17.77
2022-08-26T03:09:56.089Z,17.77
2022-08-26T03:10:56.099Z,17.77
2022-08-26T03:11:56.082Z,17.75
2022-08-26T03:12:57.099Z,17.73
2022-08-26T03:13:56.126Z,17.7
2022-08-26T03:14:56.109Z,17.69
2022-08-26T03:15:57.139Z,17.66
2022-08-26T03:16:56.091Z,17.64
2022-08-26T03:17:59.130Z,17.62
2022-08-26T03:18:56.115Z,17.59
2022-08-26T03:19:58.149Z,17.57
2022-08-26T03:20:56.091Z,17.56
2022-08-26T03:21:59.113Z,17.54
2022-08-26T03:22:57.396Z,17.55
2022-08-26T03:23:59.194Z,17.56
2022-08-26T03:24:56.129Z,17.57
2022-08-26T03:25:57.146Z,17.58
2022-08-26T03:26:57.102Z,17.58
2022-08-26T03:27:55.915Z,17.59
2022-08-26T03:28:56.160Z,17.61
2022-08-26T03:29:56.573Z,17.62
2022-08-26T03:30:56.792Z,17.62
2022-08-26T03:31:56.099Z,17.63
2022-08-26T03:32:56.083Z,17.64
2022-08-26T03:33:59.284Z,17.65
2022-08-26T03:34:56.104Z,17.64
2022-08-26T03:35:56.105Z,17.64
2022-08-26T03:36:56.103Z,17.64
2022-08-26T03:37:56.119Z,17.63
2022-08-26T03:38:56.197Z,17.62
2022-08-26T03:39:56.090Z,17.61
2022-08-26T03:40:56.072Z,17.62
2022-08-26T03:41:56.169Z,17.61
2022-08-26T03:42:56.090Z,17.61
2022-08-26T03:44:01.615Z,17.61
2022-08-26T03:44:56.062Z,17.61
2022-08-26T03:45:56.220Z,17.6
2022-08-26T03:46:56.111Z,17.59
2022-08-26T03:47:59.463Z,17.59
2022-08-26T03:48:56.336Z,17.58
2022-08-26T03:49:56.425Z,17.58
2022-08-26T03:50:56.419Z,17.57
2022-08-26T03:51:56.078Z,17.57
2022-08-26T03:52:56.267Z,17.56
2022-08-26T03:53:57.503Z,17.54
2022-08-26T03:54:56.337Z,17.54
2022-08-26T03:55:56.074Z,17.54
2022-08-26T03:56:56.099Z,17.55
2022-08-26T03:57:56.067Z,17.53
2022-08-26T03:58:56.094Z,17.53
2022-08-26T03:59:56.347Z,17.52
2022-08-26T04:00:56.104Z,17.51
2022-08-26T04:01:56.127Z,17.51
2022-08-26T04:02:56.231Z,17.5
2022-08-26T04:03:56.085Z,17.5
2022-08-26T04:04:56.079Z,17.49
2022-08-26T04:05:56.084Z,17.48
2022-08-26T04:06:56.085Z,17.47
2022-08-26T04:07:56.080Z,17.46
2022-08-26T04:08:56.138Z,17.46
2022-08-26T04:09:56.444Z,17.45
2022-08-26T04:10:56.205Z,17.46
2022-08-26T04:11:57.087Z,17.46
2022-08-26T04:12:56.191Z,17.45
2022-08-26T04:13:56.414Z,17.45
2022-08-26T04:14:59.100Z,17.45
2022-08-26T04:15:56.569Z,17.45
2022-08-26T04:16:56.095Z,17.45
2022-08-26T04:17:57.743Z,17.45
2022-08-26T04:18:56.324Z,17.45
2022-08-26T04:19:56.652Z,17.45
2022-08-26T04:20:56.314Z,17.44
2022-08-26T04:21:57.122Z,17.46
2022-08-26T04:22:56.190Z,17.48
2022-08-26T04:23:56.215Z,17.51
2022-08-26T04:24:57.079Z,17.55
2022-08-26T04:25:56.085Z,17.58
2022-08-26T04:26:56.357Z,17.6
2022-08-26T04:27:56.093Z,17.6
2022-08-26T04:28:56.128Z,17.58
2022-08-26T04:29:56.101Z,17.56
2022-08-26T04:30:56.094Z,17.53
2022-08-26T04:31:56.156Z,17.51
2022-08-26T04:32:56.120Z,17.47
2022-08-26T04:33:56.114Z,17.45
2022-08-26T04:34:56.097Z,17.41
2022-08-26T04:35:56.103Z,17.37
2022-08-26T04:36:56.102Z,17.34
2022-08-26T04:37:56.107Z,17.29
2022-08-26T04:38:56.111Z,17.25
2022-08-26T04:39:56.156Z,17.23
2022-08-26T04:40:59.090Z,17.2
2022-08-26T04:41:57.719Z,17.17
2022-08-26T04:42:56.101Z,17.15
2022-08-26T04:43:56.102Z,17.14
2022-08-26T04:44:56.091Z,17.13
2022-08-26T04:45:57.127Z,17.12
2022-08-26T04:46:56.122Z,17.12
2022-08-26T04:47:56.077Z,17.15
2022-08-26T04:48:56.091Z,17.21
2022-08-26T04:49:56.101Z,17.27
2022-08-26T04:50:56.110Z,17.34
2022-08-26T04:51:56.146Z,17.41
2022-08-26T04:52:56.110Z,17.48
2022-08-26T04:53:56.250Z,17.53
2022-08-26T04:54:56.089Z,17.58
2022-08-26T04:55:56.100Z,17.62
2022-08-26T04:56:56.103Z,17.65
2022-08-26T04:57:56.079Z,17.67
2022-08-26T04:58:56.095Z,17.68
2022-08-26T04:59:56.094Z,17.7
2022-08-26T05:00:56.098Z,17.71
2022-08-26T05:01:56.144Z,17.76
2022-08-26T05:02:56.161Z,17.78
2022-08-26T05:03:56.229Z,17.8
2022-08-26T05:04:56.083Z,17.83
2022-08-26T05:05:56.090Z,17.85
2022-08-26T05:07:02.539Z,17.87
2022-08-26T05:07:56.087Z,17.88
2022-08-26T05:08:56.103Z,17.88
2022-08-26T05:09:56.086Z,17.87
2022-08-26T05:10:56.435Z,17.85
2022-08-26T05:11:56.098Z,17.84
2022-08-26T05:12:57.107Z,17.84
2022-08-26T05:14:02.096Z,17.84
2022-08-26T05:14:56.107Z,17.85
2022-08-26T05:16:01.156Z,17.86
2022-08-26T05:16:56.089Z,17.85
2022-08-26T05:17:56.093Z,17.85
2022-08-26T05:18:56.088Z,17.86
2022-08-26T05:19:56.119Z,17.88
2022-08-26T05:20:56.093Z,17.89
2022-08-26T05:21:56.101Z,17.91
2022-08-26T05:22:56.096Z,17.91
2022-08-26T05:23:56.096Z,17.93
2022-08-26T05:24:56.109Z,17.95
2022-08-26T05:25:59.425Z,17.98
2022-08-26T05:26:57.214Z,18.01
2022-08-26T05:27:56.091Z,18.03
2022-08-26T05:28:56.105Z,18.07
2022-08-26T05:29:56.103Z,18.11
2022-08-26T05:30:56.144Z,18.16
2022-08-26T05:31:57.099Z,18.21
2022-08-26T05:32:56.090Z,18.26
2022-08-26T05:33:56.106Z,18.32
2022-08-26T05:34:56.093Z,18.36
2022-08-26T05:35:56.222Z,18.42
2022-08-26T05:36:56.352Z,18.46
2022-08-26T05:37:56.102Z,18.52
2022-08-26T05:38:56.059Z,18.57
2022-08-26T05:39:56.117Z,18.63
2022-08-26T05:40:56.106Z,18.69
2022-08-26T05:41:56.112Z,18.77
2022-08-26T05:42:56.167Z,18.83
2022-08-26T05:43:56.396Z,18.89
2022-08-26T05:44:57.256Z,18.95
2022-08-26T05:45:56.151Z,19.01
2022-08-26T05:46:56.211Z,19.06
2022-08-26T05:47:56.611Z,19.12
2022-08-26T05:48:56.095Z,19.17
2022-08-26T05:49:56.093Z,19.22
2022-08-26T05:50:56.088Z,19.26
2022-08-26T05:51:56.351Z,19.3
2022-08-26T05:52:56.090Z,19.35
2022-08-26T05:53:56.091Z,19.39
2022-08-26T05:54:56.083Z,19.43
2022-08-26T05:55:56.103Z,19.47
2022-08-26T05:56:56.097Z,19.49
2022-08-26T05:57:56.093Z,19.52
2022-08-26T05:58:56.105Z,19.57
2022-08-26T05:59:57.104Z,19.63
2022-08-26T06:00:56.083Z,19.75
2022-08-26T06:01:56.194Z,19.85
2022-08-26T06:02:56.099Z,20.01
2022-08-26T06:03:57.083Z,20.2
2022-08-26T06:04:56.092Z,20.32
2022-08-26T06:05:56.087Z,20.44
2022-08-26T06:06:56.088Z,20.56
2022-08-26T06:07:56.089Z,20.62
2022-08-26T06:08:56.113Z,20.69
2022-08-26T06:10:15.311Z,20.78
2022-08-26T06:10:56.085Z,20.87
2022-08-26T06:11:56.089Z,20.93
2022-08-26T06:12:56.087Z,20.93
2022-08-26T06:14:02.683Z,20.93
2022-08-26T06:14:56.092Z,20.96
2022-08-26T06:15:57.120Z,21.01
2022-08-26T06:16:56.085Z,21
2022-08-26T06:17:56.078Z,20.99
2022-08-26T06:18:56.098Z,20.94
2022-08-26T06:19:56.099Z,20.94
2022-08-26T06:20:59.175Z,20.93
2022-08-26T06:21:56.099Z,20.92
2022-08-26T06:22:56.089Z,20.93
2022-08-26T06:23:57.090Z,20.94
2022-08-26T06:24:56.086Z,21.02
2022-08-26T06:25:56.090Z,21.13
2022-08-26T06:26:56.087Z,21.13
2022-08-26T06:27:56.075Z,21.12
2022-08-26T06:28:56.087Z,21.13
2022-08-26T06:29:56.137Z,21.14
2022-08-26T06:30:56.147Z,21.19
2022-08-26T06:31:57.166Z,21.23
2022-08-26T06:32:56.106Z,21.25
2022-08-26T06:33:56.095Z,21.36
2022-08-26T06:34:56.078Z,21.47
2022-08-26T06:35:56.105Z,21.66
2022-08-26T06:36:57.399Z,21.77
2022-08-26T06:37:56.104Z,21.92
2022-08-26T06:38:56.980Z,21.95
2022-08-26T06:39:58.583Z,21.99
2022-08-26T06:40:59.348Z,22.03
2022-08-26T06:41:56.134Z,22.05
2022-08-26T06:42:56.460Z,22.16
2022-08-26T06:43:56.765Z,22.15
2022-08-26T06:44:56.085Z,22.15
2022-08-26T06:45:56.093Z,22.21
2022-08-26T06:46:56.114Z,22.22
2022-08-26T06:47:56.088Z,22.29
2022-08-26T06:48:56.119Z,22.32
2022-08-26T06:49:56.155Z,22.36
2022-08-26T06:50:56.097Z,22.37
2022-08-26T06:51:56.122Z,22.28
2022-08-26T06:52:57.089Z,22.16
2022-08-26T06:53:56.082Z,22.16
2022-08-26T06:54:56.089Z,22.13
2022-08-26T06:55:56.093Z,22.16
2022-08-26T06:56:56.112Z,22.26
2022-08-26T06:57:56.107Z,22.31
2022-08-26T06:58:56.079Z,22.26
2022-08-26T06:59:56.147Z,22.06
2022-08-26T07:01:02.684Z,22.1
2022-08-26T07:01:56.147Z,22.07
2022-08-26T07:02:56.136Z,22.07
2022-08-26T07:03:59.090Z,22
2022-08-26T07:04:59.085Z,21.98
2022-08-26T07:05:56.090Z,21.92
2022-08-26T07:06:56.127Z,21.79
2022-08-26T07:07:56.092Z,21.69
2022-08-26T07:08:56.096Z,21.4
2022-08-26T07:09:56.172Z,21.11
2022-08-26T07:10:57.091Z,21
2022-08-26T07:11:56.118Z,20.95
2022-08-26T07:12:56.070Z,21.01
2022-08-26T07:13:56.099Z,21.09
2022-08-26T07:14:59.094Z,21.16
2022-08-26T07:16:02.834Z,21.17
2022-08-26T07:16:56.118Z,21.19
2022-08-26T07:17:56.080Z,21.16
2022-08-26T07:18:56.080Z,21.13
2022-08-26T07:19:56.065Z,21.07
2022-08-26T07:20:57.088Z,21.04
2022-08-26T07:21:56.231Z,21.02
2022-08-26T07:22:56.099Z,21
2022-08-26T07:24:01.351Z,21
2022-08-26T07:24:56.419Z,20.99
2022-08-26T07:25:56.199Z,20.99
2022-08-26T07:26:56.416Z,20.94
2022-08-26T07:27:56.232Z,20.93
2022-08-26T07:28:56.482Z,20.95
2022-08-26T07:29:56.126Z,20.95
2022-08-26T07:30:56.449Z,20.98
2022-08-26T07:31:57.477Z,20.98
2022-08-26T07:32:56.192Z,20.93
2022-08-26T07:33:56.094Z,20.83
2022-08-26T07:34:56.202Z,20.72
2022-08-26T07:35:56.374Z,20.68
2022-08-26T07:36:56.130Z,20.68
2022-08-26T07:37:59.285Z,20.67
2022-08-26T07:38:56.215Z,20.7
2022-08-26T07:39:56.141Z,20.73
2022-08-26T07:40:56.076Z,20.77
2022-08-26T07:41:56.372Z,20.83
2022-08-26T07:42:56.096Z,20.86
2022-08-26T07:43:56.092Z,20.87
2022-08-26T07:44:56.095Z,20.87
2022-08-26T07:45:56.092Z,20.86
2022-08-26T07:46:56.082Z,20.86
2022-08-26T07:47:57.080Z,20.85
2022-08-26T07:48:56.093Z,20.83
2022-08-26T07:49:56.109Z,20.77
2022-08-26T07:50:56.099Z,20.71
2022-08-26T07:51:56.096Z,20.69
2022-08-26T07:52:56.109Z,20.74
2022-08-26T07:53:56.105Z,20.74
2022-08-26T07:54:56.105Z,20.73
2022-08-26T07:55:57.152Z,20.75
2022-08-26T07:56:57.083Z,20.78
2022-08-26T07:57:56.078Z,20.8
2022-08-26T07:58:56.113Z,20.81
2022-08-26T07:59:56.090Z,20.73
2022-08-26T08:00:56.082Z,20.67
2022-08-26T08:01:56.105Z,20.64
2022-08-26T08:02:57.088Z,20.67
2022-08-26T08:03:56.111Z,20.71
2022-08-26T08:04:56.199Z,20.76
2022-08-26T08:05:57.179Z,20.83
2022-08-26T08:06:56.086Z,20.91
2022-08-26T08:08:00.806Z,20.98
2022-08-26T08:08:56.114Z,21.02
2022-08-26T08:09:57.100Z,21.04
2022-08-26T08:10:56.082Z,21.08
2022-08-26T08:11:56.091Z,21.13
2022-08-26T08:12:57.088Z,21.16
2022-08-26T08:13:57.097Z,21.14
2022-08-26T08:14:56.103Z,21.16
2022-08-26T08:15:56.231Z,21.15
2022-08-26T08:16:56.207Z,21.18
2022-08-26T08:18:00.859Z,21.23
2022-08-26T08:18:56.106Z,21.27
2022-08-26T08:19:56.085Z,21.2
2022-08-26T08:21:05.136Z,21.19
2022-08-26T08:21:56.080Z,21.16
2022-08-26T08:22:56.088Z,21.18
2022-08-26T08:23:56.070Z,21.19
2022-08-26T08:24:56.108Z,21.19
2022-08-26T08:25:56.097Z,21.19
2022-08-26T08:26:57.226Z,21.24
2022-08-26T08:27:57.102Z,21.29
2022-08-26T08:28:56.097Z,21.33
2022-08-26T08:29:56.078Z,21.4
2022-08-26T08:30:56.147Z,21.48
2022-08-26T08:31:59.853Z,21.53
2022-08-26T08:32:56.085Z,21.58
2022-08-26T08:33:56.067Z,21.63
2022-08-26T08:34:56.071Z,21.69
2022-08-26T08:35:56.064Z,21.74
2022-08-26T08:36:56.051Z,21.75
2022-08-26T08:37:56.159Z,21.74
2022-08-26T08:38:56.065Z,21.72
2022-08-26T08:39:56.439Z,21.7
2022-08-26T08:40:56.432Z,21.71
2022-08-26T08:41:56.196Z,21.7
2022-08-26T08:42:56.491Z,21.68
2022-08-26T08:43:56.276Z,21.62
2022-08-26T08:44:56.515Z,21.57
2022-08-26T08:45:56.339Z,21.57
2022-08-26T08:46:56.551Z,21.6
2022-08-26T08:47:57.204Z,21.6
2022-08-26T08:48:57.745Z,21.59
2022-08-26T08:49:56.511Z,21.57
2022-08-26T08:50:56.525Z,21.57
2022-08-26T08:51:56.453Z,21.56
2022-08-26T08:52:56.170Z,21.57
2022-08-26T08:53:56.245Z,21.62
2022-08-26T08:54:56.462Z,21.64
2022-08-26T08:55:56.132Z,21.65
2022-08-26T08:56:56.322Z,21.6
2022-08-26T08:58:02.337Z,21.55
2022-08-26T08:58:57.699Z,21.5
2022-08-26T08:59:56.503Z,21.46
2022-08-26T09:00:56.409Z,21.43
2022-08-26T09:01:56.772Z,21.42
2022-08-26T09:02:56.083Z,21.42
2022-08-26T09:03:56.093Z,21.37
2022-08-26T09:04:59.644Z,21.32
2022-08-26T09:05:56.096Z,21.28
2022-08-26T09:07:56.090Z,21.32
2022-08-26T09:08:56.095Z,21.33
2022-08-26T09:09:56.139Z,21.35
2022-08-26T09:10:57.092Z,21.42
2022-08-26T09:11:56.086Z,21.51
2022-08-26T09:12:56.084Z,21.56
2022-08-26T09:13:56.264Z,21.62
2022-08-26T09:14:57.215Z,21.7
2022-08-26T09:15:56.108Z,21.78
2022-08-26T09:16:56.127Z,21.85
2022-08-26T09:17:56.085Z,21.94
2022-08-26T09:18:56.090Z,22.04
2022-08-26T09:19:56.109Z,22.14
2022-08-26T09:20:56.087Z,22.27
2022-08-26T09:21:57.092Z,22.3
2022-08-26T09:22:56.092Z,22.34
2022-08-26T09:23:56.581Z,22.32
2022-08-26T09:24:56.107Z,22.31
2022-08-26T09:25:56.097Z,22.26
2022-08-26T09:26:56.082Z,22.24
2022-08-26T09:27:56.089Z,22.25
2022-08-26T09:28:56.083Z,22.28
2022-08-26T09:29:56.103Z,22.28
2022-08-26T09:30:56.159Z,22.28
2022-08-26T09:31:56.085Z,22.29
2022-08-26T09:32:57.104Z,22.29
2022-08-26T09:33:56.092Z,22.32
2022-08-26T09:34:56.113Z,22.37
2022-08-26T09:35:56.130Z,22.44
2022-08-26T09:36:56.095Z,22.49
2022-08-26T09:37:56.088Z,22.53
2022-08-26T09:38:56.091Z,22.57
2022-08-26T09:39:56.138Z,22.6
2022-08-26T09:40:59.327Z,22.62
2022-08-26T09:41:56.087Z,22.6
2022-08-26T09:42:56.101Z,22.63
2022-08-26T09:43:56.086Z,22.63
2022-08-26T09:44:56.096Z,22.61
2022-08-26T09:45:59.778Z,22.59
2022-08-26T09:46:56.164Z,22.52
2022-08-26T09:47:56.101Z,22.5
2022-08-26T09:48:57.143Z,22.52
2022-08-26T09:49:56.085Z,22.54
2022-08-26T09:50:57.192Z,22.56
2022-08-26T09:51:56.455Z,22.63
2022-08-26T09:52:56.691Z,22.7
2022-08-26T09:53:56.521Z,22.79
2022-08-26T09:54:56.443Z,22.86
2022-08-26T09:55:55.876Z,22.94
2022-08-26T09:56:56.206Z,22.95
2022-08-26T09:57:57.518Z,22.98
2022-08-26T09:58:56.764Z,23.03
2022-08-26T09:59:56.282Z,23.09
2022-08-26T10:00:56.187Z,23.11
2022-08-26T10:01:57.771Z,23.17
2022-08-26T10:02:58.255Z,23.22
2022-08-26T10:03:57.125Z,23.19
2022-08-26T10:04:57.088Z,23.17
2022-08-26T10:05:56.095Z,23.15
2022-08-26T10:06:56.138Z,23.17
2022-08-26T10:07:56.085Z,23.18
2022-08-26T10:08:56.105Z,23.25
2022-08-26T10:09:56.094Z,23.3
2022-08-26T10:10:56.088Z,23.41
2022-08-26T10:11:56.107Z,23.54
2022-08-26T10:12:56.091Z,23.66
2022-08-26T10:13:56.090Z,23.79
2022-08-26T10:14:56.092Z,23.88
2022-08-26T10:15:56.098Z,23.97
2022-08-26T10:16:56.184Z,24.04
2022-08-26T10:17:56.087Z,24.05
2022-08-26T10:19:00.223Z,24.04
2022-08-26T10:19:57.668Z,24.02
2022-08-26T10:20:56.104Z,23.97
2022-08-26T10:21:56.134Z,23.95
2022-08-26T10:22:56.098Z,23.95
2022-08-26T10:23:56.085Z,23.92
2022-08-26T10:24:56.094Z,23.89
2022-08-26T10:25:59.346Z,23.9
2022-08-26T10:26:56.114Z,23.93
2022-08-26T10:27:56.089Z,24
2022-08-26T10:28:56.091Z,24.12
2022-08-26T10:29:56.111Z,24.23
2022-08-26T10:30:56.238Z,24.17
2022-08-26T10:32:02.623Z,24.17
2022-08-26T10:32:56.069Z,24.16
2022-08-26T10:34:00.305Z,24.08
2022-08-26T10:34:56.073Z,23.97
2022-08-26T10:35:56.078Z,23.9
2022-08-26T10:37:15.171Z,23.88
2022-08-26T10:37:56.053Z,23.82
2022-08-26T10:38:56.242Z,23.77
2022-08-26T10:39:59.384Z,23.75
2022-08-26T10:40:56.217Z,23.74
2022-08-26T10:41:56.476Z,23.76
2022-08-26T10:42:56.465Z,23.73
2022-08-26T10:43:56.072Z,23.7
2022-08-26T10:44:59.199Z,23.64
2022-08-26T10:45:56.428Z,23.59
2022-08-26T10:46:56.093Z,23.62
2022-08-26T10:47:56.198Z,23.6
2022-08-26T10:48:56.088Z,23.63
2022-08-26T10:50:03.109Z,23.71
2022-08-26T10:50:57.256Z,23.79
2022-08-26T10:51:56.422Z,23.92
2022-08-26T10:52:56.130Z,23.98
2022-08-26T10:53:56.209Z,24.02
2022-08-26T10:54:56.235Z,24.05
2022-08-26T10:55:56.105Z,24.01
2022-08-26T10:56:56.305Z,23.99
2022-08-26T10:57:56.104Z,23.99
2022-08-26T10:58:56.105Z,24.06
2022-08-26T10:59:56.097Z,24.13
2022-08-26T11:00:56.121Z,24.25
2022-08-26T11:01:57.115Z,24.29
2022-08-26T11:02:57.106Z,24.36
2022-08-26T11:03:59.203Z,24.39
2022-08-26T11:04:56.106Z,24.39
2022-08-26T11:05:56.224Z,24.44
2022-08-26T11:06:57.103Z,24.49
2022-08-26T11:07:56.082Z,24.6
2022-08-26T11:08:56.102Z,24.72
2022-08-26T11:09:56.088Z,24.72
2022-08-26T11:10:59.242Z,24.8
2022-08-26T11:11:56.086Z,24.81
2022-08-26T11:12:56.084Z,24.82
2022-08-26T11:13:56.090Z,24.8
2022-08-26T11:14:59.375Z,24.76
2022-08-26T11:15:56.110Z,24.66
2022-08-26T11:16:56.162Z,24.66
2022-08-26T11:17:56.103Z,24.77
2022-08-26T11:18:56.078Z,24.92
2022-08-26T11:20:01.367Z,25.1
2022-08-26T11:20:56.111Z,25.31
2022-08-26T11:21:56.083Z,25.36
2022-08-26T11:22:56.090Z,25.44
2022-08-26T11:23:56.108Z,25.41
2022-08-26T11:24:56.098Z,25.42
2022-08-26T11:25:56.103Z,25.42
2022-08-26T11:26:57.207Z,25.43
2022-08-26T11:27:56.093Z,25.48
2022-08-26T11:28:56.224Z,25.45
2022-08-26T11:29:57.233Z,25.44
2022-08-26T11:30:59.113Z,25.42
2022-08-26T11:31:56.177Z,25.33
2022-08-26T11:32:56.101Z,25.38
2022-08-26T11:33:56.090Z,25.49
2022-08-26T11:34:57.078Z,25.63
2022-08-26T11:35:56.094Z,25.73
2022-08-26T11:36:56.086Z,25.93
2022-08-26T11:37:56.104Z,26.12
2022-08-26T11:38:56.110Z,26.26
2022-08-26T11:39:59.199Z,26.4
2022-08-26T11:40:56.067Z,26.48
2022-08-26T11:41:56.087Z,26.48
2022-08-26T11:42:56.049Z,26.31
2022-08-26T11:43:57.152Z,26.06
2022-08-26T11:44:59.371Z,25.99
2022-08-26T11:45:56.198Z,25.9
2022-08-26T11:46:56.144Z,25.82
2022-08-26T11:47:56.487Z,25.73
2022-08-26T11:48:57.253Z,25.65
2022-08-26T11:49:57.442Z,25.67
2022-08-26T11:50:57.018Z,25.59
2022-08-26T11:51:56.523Z,25.49
2022-08-26T11:52:56.104Z,25.47
2022-08-26T11:53:59.166Z,25.47
2022-08-26T11:54:56.154Z,25.43
2022-08-26T11:55:56.082Z,25.33
2022-08-26T11:56:56.074Z,25.26
2022-08-26T11:57:56.057Z,25.22
2022-08-26T11:58:56.219Z,25.31
2022-08-26T11:59:56.197Z,25.39
2022-08-26T12:00:56.343Z,25.53
2022-08-26T12:01:56.818Z,25.69
2022-08-26T12:02:56.740Z,25.73
2022-08-26T12:03:57.716Z,25.78
2022-08-26T12:04:56.065Z,25.93
2022-08-26T12:05:57.553Z,26.11
2022-08-26T12:06:56.458Z,26.29
2022-08-26T12:07:56.209Z,26.26
2022-08-26T12:08:57.332Z,26.23
2022-08-26T12:09:57.444Z,26.25
2022-08-26T12:10:56.566Z,26.19
2022-08-26T12:11:59.489Z,26.15
2022-08-26T12:12:56.174Z,26.24
2022-08-26T12:13:56.144Z,26.38
2022-08-26T12:14:56.468Z,26.56
2022-08-26T12:15:57.491Z,26.76
2022-08-26T12:16:56.235Z,26.83
2022-08-26T12:17:56.097Z,27
2022-08-26T12:18:56.346Z,27.07
2022-08-26T12:19:57.163Z,27.06
2022-08-26T12:20:56.104Z,27
2022-08-26T12:21:56.125Z,26.86
2022-08-26T12:22:56.111Z,26.72
2022-08-26T12:23:56.086Z,26.61
2022-08-26T12:24:56.090Z,26.56
2022-08-26T12:25:56.079Z,26.58
2022-08-26T12:26:56.091Z,26.52
2022-08-26T12:27:56.091Z,26.47
2022-08-26T12:28:56.099Z,26.42
2022-08-26T12:29:56.084Z,26.28
2022-08-26T12:30:56.104Z,26.09
2022-08-26T12:31:56.122Z,26
2022-08-26T12:32:59.091Z,25.86
2022-08-26T12:33:56.337Z,25.79
2022-08-26T12:34:56.122Z,25.8
2022-08-26T12:35:57.082Z,25.95
2022-08-26T12:36:56.103Z,26.17
2022-08-26T12:37:56.089Z,26.46
2022-08-26T12:38:59.099Z,26.75
2022-08-26T12:39:56.125Z,26.93
2022-08-26T12:40:56.088Z,26.94
2022-08-26T12:41:56.099Z,26.63
2022-08-26T12:42:56.101Z,26.6
2022-08-26T12:43:56.217Z,26.56
2022-08-26T12:44:56.090Z,26.55
2022-08-26T12:45:56.198Z,26.5
2022-08-26T12:46:56.077Z,26.44
2022-08-26T12:47:56.090Z,26.36
2022-08-26T12:48:56.101Z,26.3
2022-08-26T12:49:56.089Z,26.12
2022-08-26T12:50:56.100Z,26.01
2022-08-26T12:51:56.100Z,25.98
2022-08-26T12:52:56.108Z,25.98
2022-08-26T12:53:56.102Z,26
2022-08-26T12:54:59.128Z,26.05
2022-08-26T12:55:56.303Z,26.06
2022-08-26T12:56:56.089Z,26